sensor_id;sensor_type;location;lat;lon;timestamp;pressure;altitude;pressure_sealevel;temperature;humidity
46127;BME280;31859;55.030;-1.550;2022-09-02T00:01:22;101178.29;;;16.08;100.00
46127;BME280;31859;55.030;-1.550;2022-09-02T00:03:51;101178.39;;;16.35;100.00
46127;BME280;31859;55.030;-1.550;2022-09-02T00:06:22;101176.92;;;15.93;100.00
46127;BME280;31859;55.030;-1.550;2022-09-02T00:08:49;101172.31;;;16.16;100.00
46127;BME280;31859;55.030;-1.550;2022-09-02T00:11:21;101172.94;;;16.29;100.00
46127;BME280;31859;55.030;-1.550;2022-09-02T00:13:49;101172.35;;;16.42;100.00
46127;BME280;31859;55.030;-1.550;2022-09-02T00:16:16;101174.71;;;16.44;100.00
46127;BME280;31859;55.030;-1.550;2022-09-02T00:18:44;101174.54;;;16.61;100.00
46127;BME280;31859;55.030;-1.550;2022-09-02T00:21:12;101178.14;;;16.96;100.00
46127;BME280;31859;55.030;-1.550;2022-09-02T00:23:40;101176.78;;;17.79;100.00
46127;BME280;31859;55.030;-1.550;2022-09-02T00:26:08;101176.26;;;17.63;100.00
46127;BME280;31859;55.030;-1.550;2022-09-02T00:28:36;101174.60;;;17.83;100.00
46127;BME280;31859;55.030;-1.550;2022-09-02T00:31:04;101171.77;;;17.13;100.00
46127;BME280;31859;55.030;-1.550;2022-09-02T00:33:32;101169.80;;;17.55;100.00
46127;BME280;31859;55.030;-1.550;2022-09-02T00:35:59;101169.57;;;17.96;100.00
46127;BME280;31859;55.030;-1.550;2022-09-02T00:38:27;101169.45;;;17.47;100.00
46127;BME280;31859;55.030;-1.550;2022-09-02T00:40:54;101169.67;;;17.56;100.00
46127;BME280;31859;55.030;-1.550;2022-09-02T00:43:24;101164.21;;;16.73;100.00
46127;BME280;31859;55.030;-1.550;2022-09-02T00:45:52;101162.42;;;16.70;100.00
46127;BME280;31859;55.030;-1.550;2022-09-02T00:48:20;101159.94;;;17.15;100.00
46127;BME280;31859;55.030;-1.550;2022-09-02T00:50:47;101157.71;;;17.30;100.00
46127;BME280;31859;55.030;-1.550;2022-09-02T00:53:14;101154.81;;;16.22;100.00
46127;BME280;31859;55.030;-1.550;2022-09-02T00:55:46;101152.26;;;16.22;100.00
46127;BME280;31859;55.030;-1.550;2022-09-02T00:58:16;101143.72;;;16.08;100.00
46127;BME280;31859;55.030;-1.550;2022-09-02T01:00:46;101138.82;;;15.57;100.00
46127;BME280;31859;55.030;-1.550;2022-09-02T01:03:18;101137.94;;;15.97;100.00
46127;BME280;31859;55.030;-1.550;2022-09-02T01:05:47;101133.92;;;15.72;100.00
46127;BME280;31859;55.030;-1.550;2022-09-02T01:08:18;101126.71;;;15.04;100.00
46127;BME280;31859;55.030;-1.550;2022-09-02T01:10:47;101122.33;;;14.72;100.00
46127;BME280;31859;55.030;-1.550;2022-09-02T01:13:18;101117.39;;;14.40;100.00
46127;BME280;31859;55.030;-1.550;2022-09-02T01:15:49;101113.58;;;14.83;100.00
46127;BME280;31859;55.030;-1.550;2022-09-02T01:18:20;101114.56;;;15.29;100.00
46127;BME280;31859;55.030;-1.550;2022-09-02T01:20:48;101109.46;;;15.96;100.00
46127;BME280;31859;55.030;-1.550;2022-09-02T01:23:16;101110.76;;;16.28;100.00
46127;BME280;31859;55.030;-1.550;2022-09-02T01:25:45;101108.07;;;16.15;100.00
46127;BME280;31859;55.030;-1.550;2022-09-02T01:28:15;101107.42;;;16.07;100.00
46127;BME280;31859;55.030;-1.550;2022-09-02T01:30:46;101110.94;;;15.40;100.00
46127;BME280;31859;55.030;-1.550;2022-09-02T01:33:14;101103.83;;;15.06;100.00
46127;BME280;31859;55.030;-1.550;2022-09-02T01:35:41;101098.66;;;15.18;100.00
46127;BME280;31859;55.030;-1.550;2022-09-02T01:38:09;101096.41;;;15.64;100.00
46127;BME280;31859;55.030;-1.550;2022-09-02T01:40:37;101097.59;;;15.63;100.00
46127;BME280;31859;55.030;-1.550;2022-09-02T01:43:08;101095.01;;;15.83;100.00
46127;BME280;31859;55.030;-1.550;2022-09-02T01:45:36;101092.53;;;15.73;100.00
46127;BME280;31859;55.030;-1.550;2022-09-02T01:48:04;101091.52;;;15.71;100.00
46127;BME280;31859;55.030;-1.550;2022-09-02T01:50:35;101089.70;;;15.46;100.00
46127;BME280;31859;55.030;-1.550;2022-09-02T01:53:03;101089.28;;;15.54;100.00
46127;BME280;31859;55.030;-1.550;2022-09-02T01:55:31;101088.92;;;14.99;100.00
46127;BME280;31859;55.030;-1.550;2022-09-02T01:57:59;101082.15;;;15.35;100.00
46127;BME280;31859;55.030;-1.550;2022-09-02T02:00:27;101075.49;;;14.90;100.00
46127;BME280;31859;55.030;-1.550;2022-09-02T02:02:54;101071.43;;;14.56;100.00
46127;BME280;31859;55.030;-1.550;2022-09-02T02:05:21;101067.57;;;15.25;100.00
46127;BME280;31859;55.030;-1.550;2022-09-02T02:07:49;101068.12;;;15.42;100.00
46127;BME280;31859;55.030;-1.550;2022-09-02T02:10:18;101066.09;;;14.72;100.00
46127;BME280;31859;55.030;-1.550;2022-09-02T02:12:46;101058.75;;;14.23;100.00
46127;BME280;31859;55.030;-1.550;2022-09-02T02:15:16;101056.88;;;14.66;100.00
46127;BME280;31859;55.030;-1.550;2022-09-02T02:17:45;101055.15;;;14.23;100.00
46127;BME280;31859;55.030;-1.550;2022-09-02T02:20:13;101053.21;;;14.18;100.00
46127;BME280;31859;55.030;-1.550;2022-09-02T02:22:42;101056.85;;;13.80;100.00
46127;BME280;31859;55.030;-1.550;2022-09-02T02:25:10;101052.41;;;13.88;100.00
46127;BME280;31859;55.030;-1.550;2022-09-02T02:27:37;101053.27;;;13.63;100.00
46127;BME280;31859;55.030;-1.550;2022-09-02T02:30:07;101051.97;;;13.94;100.00
46127;BME280;31859;55.030;-1.550;2022-09-02T02:32:34;101048.11;;;13.50;100.00
46127;BME280;31859;55.030;-1.550;2022-09-02T02:35:02;101044.12;;;13.62;100.00
46127;BME280;31859;55.030;-1.550;2022-09-02T02:37:30;101042.76;;;13.97;100.00
46127;BME280;31859;55.030;-1.550;2022-09-02T02:39:57;101040.29;;;13.83;100.00
46127;BME280;31859;55.030;-1.550;2022-09-02T02:42:25;101043.92;;;14.35;100.00
46127;BME280;31859;55.030;-1.550;2022-09-02T02:44:52;101040.56;;;14.72;100.00
46127;BME280;31859;55.030;-1.550;2022-09-02T02:47:19;101039.59;;;13.95;100.00
46127;BME280;31859;55.030;-1.550;2022-09-02T02:49:46;101038.12;;;13.80;100.00
46127;BME280;31859;55.030;-1.550;2022-09-02T02:52:13;101038.80;;;13.47;100.00
46127;BME280;31859;55.030;-1.550;2022-09-02T02:54:41;101034.12;;;13.91;100.00
46127;BME280;31859;55.030;-1.550;2022-09-02T02:57:08;101033.21;;;13.78;100.00
46127;BME280;31859;55.030;-1.550;2022-09-02T02:59:36;101029.03;;;13.80;100.00
46127;BME280;31859;55.030;-1.550;2022-09-02T03:02:04;101026.88;;;14.39;100.00
46127;BME280;31859;55.030;-1.550;2022-09-02T03:04:32;101030.14;;;14.41;100.00
46127;BME280;31859;55.030;-1.550;2022-09-02T03:07:00;101026.12;;;14.16;100.00
46127;BME280;31859;55.030;-1.550;2022-09-02T03:09:27;101024.64;;;13.76;100.00
46127;BME280;31859;55.030;-1.550;2022-09-02T03:11:54;101020.65;;;13.90;100.00
46127;BME280;31859;55.030;-1.550;2022-09-02T03:14:22;101018.15;;;14.13;100.00
46127;BME280;31859;55.030;-1.550;2022-09-02T03:16:49;101018.44;;;13.97;100.00
46127;BME280;31859;55.030;-1.550;2022-09-02T03:19:15;101015.49;;;13.93;100.00
46127;BME280;31859;55.030;-1.550;2022-09-02T03:21:42;101011.21;;;13.47;100.00
46127;BME280;31859;55.030;-1.550;2022-09-02T03:24:11;101009.62;;;13.31;100.00
46127;BME280;31859;55.030;-1.550;2022-09-02T03:26:40;101007.45;;;13.76;100.00
46127;BME280;31859;55.030;-1.550;2022-09-02T03:29:08;101007.58;;;14.19;100.00
46127;BME280;31859;55.030;-1.550;2022-09-02T03:31:35;101008.36;;;14.04;100.00
46127;BME280;31859;55.030;-1.550;2022-09-02T03:34:03;101005.40;;;13.88;100.00
46127;BME280;31859;55.030;-1.550;2022-09-02T03:36:32;100999.97;;;13.74;100.00
46127;BME280;31859;55.030;-1.550;2022-09-02T03:39:00;101000.88;;;13.62;100.00
46127;BME280;31859;55.030;-1.550;2022-09-02T03:41:28;100996.98;;;14.47;100.00
46127;BME280;31859;55.030;-1.550;2022-09-02T03:43:55;100999.30;;;14.97;100.00
46127;BME280;31859;55.030;-1.550;2022-09-02T03:46:22;101001.56;;;15.97;100.00
46127;BME280;31859;55.030;-1.550;2022-09-02T03:48:49;100997.41;;;15.35;100.00
46127;BME280;31859;55.030;-1.550;2022-09-02T03:51:17;100996.98;;;15.16;100.00
46127;BME280;31859;55.030;-1.550;2022-09-02T03:53:44;100990.48;;;14.46;100.00
46127;BME280;31859;55.030;-1.550;2022-09-02T03:56:14;100990.19;;;14.27;100.00
46127;BME280;31859;55.030;-1.550;2022-09-02T03:58:43;100991.48;;;15.61;100.00
46127;BME280;31859;55.030;-1.550;2022-09-02T04:01:13;100994.53;;;15.80;100.00
46127;BME280;31859;55.030;-1.550;2022-09-02T04:03:40;100989.91;;;14.77;100.00
46127;BME280;31859;55.030;-1.550;2022-09-02T04:06:15;100981.60;;;14.70;100.00
46127;BME280;31859;55.030;-1.550;2022-09-02T04:08:43;100978.20;;;14.76;100.00
46127;BME280;31859;55.030;-1.550;2022-09-02T04:11:15;100973.42;;;14.46;100.00
46127;BME280;31859;55.030;-1.550;2022-09-02T04:13:44;100968.07;;;14.22;100.00
46127;BME280;31859;55.030;-1.550;2022-09-02T04:16:13;100965.97;;;14.40;100.00
46127;BME280;31859;55.030;-1.550;2022-09-02T04:18:41;100963.72;;;14.25;100.00
46127;BME280;31859;55.030;-1.550;2022-09-02T04:21:08;100967.43;;;14.25;100.00
46127;BME280;31859;55.030;-1.550;2022-09-02T04:23:36;100961.62;;;13.67;100.00
46127;BME280;31859;55.030;-1.550;2022-09-02T04:26:05;100958.17;;;13.51;100.00
46127;BME280;31859;55.030;-1.550;2022-09-02T04:28:34;100959.14;;;13.32;100.00
46127;BME280;31859;55.030;-1.550;2022-09-02T04:31:03;100953.46;;;13.50;100.00
46127;BME280;31859;55.030;-1.550;2022-09-02T04:33:31;100955.40;;;13.21;100.00
46127;BME280;31859;55.030;-1.550;2022-09-02T04:35:59;100953.59;;;13.44;100.00
46127;BME280;31859;55.030;-1.550;2022-09-02T04:38:29;100951.66;;;13.64;100.00
46127;BME280;31859;55.030;-1.550;2022-09-02T04:40:56;100947.57;;;13.38;100.00
46127;BME280;31859;55.030;-1.550;2022-09-02T04:43:23;100947.00;;;13.52;100.00
46127;BME280;31859;55.030;-1.550;2022-09-02T04:45:50;100944.06;;;13.72;100.00
46127;BME280;31859;55.030;-1.550;2022-09-02T04:48:18;100947.86;;;13.72;100.00
46127;BME280;31859;55.030;-1.550;2022-09-02T04:50:45;100947.21;;;13.65;100.00
46127;BME280;31859;55.030;-1.550;2022-09-02T04:53:12;100948.37;;;13.22;100.00
46127;BME280;31859;55.030;-1.550;2022-09-02T04:55:41;100947.83;;;13.23;100.00
46127;BME280;31859;55.030;-1.550;2022-09-02T04:58:09;100942.19;;;13.46;100.00
46127;BME280;31859;55.030;-1.550;2022-09-02T05:00:36;100943.87;;;13.26;100.00
46127;BME280;31859;55.030;-1.550;2022-09-02T05:03:04;100945.12;;;13.14;100.00
46127;BME280;31859;55.030;-1.550;2022-09-02T05:05:32;100946.66;;;13.07;100.00
46127;BME280;31859;55.030;-1.550;2022-09-02T05:07:59;100946.93;;;13.10;100.00
46127;BME280;31859;55.030;-1.550;2022-09-02T05:10:26;100940.93;;;13.25;100.00
46127;BME280;31859;55.030;-1.550;2022-09-02T05:12:54;100940.33;;;13.77;100.00
46127;BME280;31859;55.030;-1.550;2022-09-02T05:15:21;100942.11;;;13.80;100.00
46127;BME280;31859;55.030;-1.550;2022-09-02T05:17:48;100943.23;;;13.40;100.00
46127;BME280;31859;55.030;-1.550;2022-09-02T05:20:15;100938.75;;;13.69;100.00
46127;BME280;31859;55.030;-1.550;2022-09-02T05:22:43;100940.17;;;14.23;100.00
46127;BME280;31859;55.030;-1.550;2022-09-02T05:25:10;100939.99;;;14.19;100.00
46127;BME280;31859;55.030;-1.550;2022-09-02T05:27:37;100934.65;;;14.14;100.00
46127;BME280;31859;55.030;-1.550;2022-09-02T05:30:05;100933.99;;;14.31;100.00
46127;BME280;31859;55.030;-1.550;2022-09-02T05:32:33;100931.98;;;14.15;100.00
46127;BME280;31859;55.030;-1.550;2022-09-02T05:35:01;100930.87;;;14.14;100.00
46127;BME280;31859;55.030;-1.550;2022-09-02T05:37:28;100932.04;;;13.38;100.00
46127;BME280;31859;55.030;-1.550;2022-09-02T05:39:54;100928.75;;;13.91;100.00
46127;BME280;31859;55.030;-1.550;2022-09-02T05:42:22;100934.98;;;13.87;100.00
46127;BME280;31859;55.030;-1.550;2022-09-02T05:44:49;100935.95;;;13.90;100.00
46127;BME280;31859;55.030;-1.550;2022-09-02T05:47:16;100937.65;;;13.70;100.00
46127;BME280;31859;55.030;-1.550;2022-09-02T05:49:43;100937.13;;;14.04;100.00
46127;BME280;31859;55.030;-1.550;2022-09-02T05:52:12;100938.45;;;14.18;100.00
46127;BME280;31859;55.030;-1.550;2022-09-02T05:54:39;100937.70;;;14.25;100.00
46127;BME280;31859;55.030;-1.550;2022-09-02T05:57:09;100935.93;;;14.38;100.00
46127;BME280;31859;55.030;-1.550;2022-09-02T05:59:38;100934.86;;;13.52;100.00
46127;BME280;31859;55.030;-1.550;2022-09-02T06:02:07;100931.87;;;14.12;100.00
46127;BME280;31859;55.030;-1.550;2022-09-02T06:04:37;100930.01;;;14.58;100.00
46127;BME280;31859;55.030;-1.550;2022-09-02T06:07:04;100931.80;;;14.84;100.00
46127;BME280;31859;55.030;-1.550;2022-09-02T06:09:32;100927.64;;;15.04;100.00
46127;BME280;31859;55.030;-1.550;2022-09-02T06:11:59;100931.49;;;15.30;100.00
46127;BME280;31859;55.030;-1.550;2022-09-02T06:14:26;100934.15;;;15.03;100.00
46127;BME280;31859;55.030;-1.550;2022-09-02T06:16:55;100927.76;;;13.75;100.00
46127;BME280;31859;55.030;-1.550;2022-09-02T06:19:25;100923.56;;;13.00;100.00
46127;BME280;31859;55.030;-1.550;2022-09-02T06:21:54;100920.04;;;13.09;100.00
46127;BME280;31859;55.030;-1.550;2022-09-02T06:24:21;100919.27;;;13.35;100.00
46127;BME280;31859;55.030;-1.550;2022-09-02T06:26:48;100915.62;;;13.64;100.00
46127;BME280;31859;55.030;-1.550;2022-09-02T06:29:15;100914.04;;;14.32;100.00
46127;BME280;31859;55.030;-1.550;2022-09-02T06:31:44;100915.42;;;14.28;100.00
46127;BME280;31859;55.030;-1.550;2022-09-02T06:34:13;100914.72;;;14.00;100.00
46127;BME280;31859;55.030;-1.550;2022-09-02T06:36:42;100921.34;;;14.26;100.00
46127;BME280;31859;55.030;-1.550;2022-09-02T06:39:11;100915.44;;;14.48;100.00
46127;BME280;31859;55.030;-1.550;2022-09-02T06:41:41;100920.39;;;15.31;100.00
46127;BME280;31859;55.030;-1.550;2022-09-02T06:44:10;100916.49;;;14.55;100.00
46127;BME280;31859;55.030;-1.550;2022-09-02T06:46:39;100908.58;;;14.19;100.00
46127;BME280;31859;55.030;-1.550;2022-09-02T06:49:08;100902.69;;;13.87;100.00
46127;BME280;31859;55.030;-1.550;2022-09-02T06:51:38;100900.89;;;13.96;100.00
46127;BME280;31859;55.030;-1.550;2022-09-02T06:54:08;100902.10;;;14.12;100.00
46127;BME280;31859;55.030;-1.550;2022-09-02T06:56:35;100899.51;;;14.30;100.00
46127;BME280;31859;55.030;-1.550;2022-09-02T06:59:03;100899.95;;;14.55;100.00
46127;BME280;31859;55.030;-1.550;2022-09-02T07:01:32;100897.68;;;14.79;100.00
46127;BME280;31859;55.030;-1.550;2022-09-02T07:04:00;100895.70;;;14.62;100.00
46127;BME280;31859;55.030;-1.550;2022-09-02T07:06:32;100892.45;;;14.60;100.00
46127;BME280;31859;55.030;-1.550;2022-09-02T07:09:00;100888.52;;;14.81;100.00
46127;BME280;31859;55.030;-1.550;2022-09-02T07:11:26;100888.29;;;15.19;100.00
46127;BME280;31859;55.030;-1.550;2022-09-02T07:13:54;100887.23;;;14.99;100.00
46127;BME280;31859;55.030;-1.550;2022-09-02T07:16:21;100885.14;;;15.33;100.00
46127;BME280;31859;55.030;-1.550;2022-09-02T07:18:48;100884.32;;;15.89;100.00
46127;BME280;31859;55.030;-1.550;2022-09-02T07:21:16;100881.25;;;16.22;100.00
46127;BME280;31859;55.030;-1.550;2022-09-02T07:23:43;100883.03;;;16.24;100.00
46127;BME280;31859;55.030;-1.550;2022-09-02T07:26:12;100883.44;;;15.88;100.00
46127;BME280;31859;55.030;-1.550;2022-09-02T07:28:40;100878.63;;;16.38;100.00
46127;BME280;31859;55.030;-1.550;2022-09-02T07:31:08;100876.56;;;16.50;100.00
46127;BME280;31859;55.030;-1.550;2022-09-02T07:33:36;100872.68;;;15.86;100.00
46127;BME280;31859;55.030;-1.550;2022-09-02T07:36:04;100874.78;;;16.79;100.00
46127;BME280;31859;55.030;-1.550;2022-09-02T07:38:33;100875.26;;;17.04;100.00
46127;BME280;31859;55.030;-1.550;2022-09-02T07:41:00;100876.77;;;16.93;100.00
46127;BME280;31859;55.030;-1.550;2022-09-02T07:43:28;100875.35;;;17.25;100.00
46127;BME280;31859;55.030;-1.550;2022-09-02T07:45:57;100875.41;;;17.07;100.00
46127;BME280;31859;55.030;-1.550;2022-09-02T07:48:26;100881.90;;;17.04;100.00
46127;BME280;31859;55.030;-1.550;2022-09-02T07:50:53;100881.34;;;17.10;100.00
46127;BME280;31859;55.030;-1.550;2022-09-02T07:53:20;100881.33;;;17.56;100.00
46127;BME280;31859;55.030;-1.550;2022-09-02T07:55:48;100885.13;;;17.74;100.00
46127;BME280;31859;55.030;-1.550;2022-09-02T07:58:17;100887.20;;;17.45;100.00
46127;BME280;31859;55.030;-1.550;2022-09-02T08:00:46;100885.60;;;16.79;100.00
46127;BME280;31859;55.030;-1.550;2022-09-02T08:03:14;100873.41;;;16.97;100.00
46127;BME280;31859;55.030;-1.550;2022-09-02T08:05:42;100870.68;;;16.92;100.00
46127;BME280;31859;55.030;-1.550;2022-09-02T08:08:09;100870.38;;;17.35;100.00
46127;BME280;31859;55.030;-1.550;2022-09-02T08:10:37;100873.73;;;16.94;100.00
46127;BME280;31859;55.030;-1.550;2022-09-02T08:13:04;100871.00;;;16.62;100.00
46127;BME280;31859;55.030;-1.550;2022-09-02T08:15:34;100872.11;;;16.89;100.00
46127;BME280;31859;55.030;-1.550;2022-09-02T08:18:02;100868.51;;;16.92;100.00
46127;BME280;31859;55.030;-1.550;2022-09-02T08:20:29;100870.69;;;16.66;100.00
46127;BME280;31859;55.030;-1.550;2022-09-02T08:22:57;100868.82;;;16.18;100.00
46127;BME280;31859;55.030;-1.550;2022-09-02T08:25:25;100862.98;;;16.62;100.00
46127;BME280;31859;55.030;-1.550;2022-09-02T08:27:53;100856.93;;;17.00;100.00
46127;BME280;31859;55.030;-1.550;2022-09-02T08:30:20;100855.50;;;17.19;100.00
46127;BME280;31859;55.030;-1.550;2022-09-02T08:32:47;100853.50;;;17.02;100.00
46127;BME280;31859;55.030;-1.550;2022-09-02T08:35:14;100852.46;;;16.78;100.00
46127;BME280;31859;55.030;-1.550;2022-09-02T08:37:42;100845.25;;;16.40;100.00
46127;BME280;31859;55.030;-1.550;2022-09-02T08:40:14;100846.38;;;16.24;100.00
46127;BME280;31859;55.030;-1.550;2022-09-02T08:42:45;100839.49;;;15.93;100.00
46127;BME280;31859;55.030;-1.550;2022-09-02T08:45:19;100836.49;;;15.86;100.00
46127;BME280;31859;55.030;-1.550;2022-09-02T08:47:59;100832.97;;;15.79;100.00
46127;BME280;31859;55.030;-1.550;2022-09-02T08:50:29;100835.67;;;15.79;100.00
46127;BME280;31859;55.030;-1.550;2022-09-02T08:53:02;100838.57;;;15.97;100.00
46127;BME280;31859;55.030;-1.550;2022-09-02T08:55:35;100832.33;;;16.52;100.00
46127;BME280;31859;55.030;-1.550;2022-09-02T08:58:06;100830.37;;;15.85;100.00
46127;BME280;31859;55.030;-1.550;2022-09-02T09:00:38;100826.11;;;15.66;100.00
46127;BME280;31859;55.030;-1.550;2022-09-02T09:03:16;100821.00;;;16.23;100.00
46127;BME280;31859;55.030;-1.550;2022-09-02T09:05:58;100823.41;;;15.97;100.00
46127;BME280;31859;55.030;-1.550;2022-09-02T09:08:31;100822.81;;;15.73;100.00
46127;BME280;31859;55.030;-1.550;2022-09-02T09:11:02;100821.31;;;15.80;100.00
46127;BME280;31859;55.030;-1.550;2022-09-02T09:13:45;100814.85;;;15.78;100.00
46127;BME280;31859;55.030;-1.550;2022-09-02T09:16:20;100815.57;;;16.23;100.00
46127;BME280;31859;55.030;-1.550;2022-09-02T09:18:53;100803.98;;;15.97;100.00
46127;BME280;31859;55.030;-1.550;2022-09-02T09:21:23;100802.34;;;16.20;100.00
46127;BME280;31859;55.030;-1.550;2022-09-02T09:23:53;100803.38;;;16.41;100.00
46127;BME280;31859;55.030;-1.550;2022-09-02T09:26:26;100798.66;;;16.63;100.00
46127;BME280;31859;55.030;-1.550;2022-09-02T09:28:54;100803.04;;;16.59;100.00
46127;BME280;31859;55.030;-1.550;2022-09-02T09:31:25;100799.85;;;16.25;100.00
46127;BME280;31859;55.030;-1.550;2022-09-02T09:33:56;100791.44;;;16.21;100.00
46127;BME280;31859;55.030;-1.550;2022-09-02T09:36:56;100796.34;;;16.16;100.00
46127;BME280;31859;55.030;-1.550;2022-09-02T09:39:25;100796.46;;;15.77;100.00
46127;BME280;31859;55.030;-1.550;2022-09-02T09:41:55;100789.98;;;15.39;100.00
46127;BME280;31859;55.030;-1.550;2022-09-02T09:44:55;100788.85;;;15.43;100.00
46127;BME280;31859;55.030;-1.550;2022-09-02T09:47:25;100789.77;;;15.54;100.00
46127;BME280;31859;55.030;-1.550;2022-09-02T09:50:10;100784.89;;;16.42;100.00
46127;BME280;31859;55.030;-1.550;2022-09-02T09:52:37;100788.41;;;17.27;100.00
46127;BME280;31859;55.030;-1.550;2022-09-02T09:55:10;100790.24;;;16.78;100.00
46127;BME280;31859;55.030;-1.550;2022-09-02T09:57:39;100790.91;;;17.16;100.00
46127;BME280;31859;55.030;-1.550;2022-09-02T10:00:13;100784.08;;;16.98;100.00
46127;BME280;31859;55.030;-1.550;2022-09-02T10:02:47;100780.48;;;17.16;100.00
46127;BME280;31859;55.030;-1.550;2022-09-02T10:05:27;100780.66;;;16.89;100.00
46127;BME280;31859;55.030;-1.550;2022-09-02T10:07:58;100775.37;;;16.43;100.00
46127;BME280;31859;55.030;-1.550;2022-09-02T10:10:28;100772.70;;;17.44;100.00
46127;BME280;31859;55.030;-1.550;2022-09-02T10:12:58;100766.69;;;18.46;100.00
46127;BME280;31859;55.030;-1.550;2022-09-02T10:15:34;100766.76;;;18.69;100.00
46127;BME280;31859;55.030;-1.550;2022-09-02T10:18:16;100771.74;;;18.52;100.00
46127;BME280;31859;55.030;-1.550;2022-09-02T10:20:55;100773.22;;;18.49;100.00
46127;BME280;31859;55.030;-1.550;2022-09-02T10:23:36;100769.29;;;16.67;100.00
46127;BME280;31859;55.030;-1.550;2022-09-02T10:26:14;100764.38;;;16.23;100.00
46127;BME280;31859;55.030;-1.550;2022-09-02T10:28:58;100760.17;;;16.74;100.00
46127;BME280;31859;55.030;-1.550;2022-09-02T10:31:30;100749.93;;;16.37;100.00
46127;BME280;31859;55.030;-1.550;2022-09-02T10:34:09;100743.27;;;15.88;100.00
46127;BME280;31859;55.030;-1.550;2022-09-02T10:36:49;100741.40;;;16.76;100.00
46127;BME280;31859;55.030;-1.550;2022-09-02T10:39:29;100745.30;;;17.41;100.00
46127;BME280;31859;55.030;-1.550;2022-09-02T10:42:10;100745.97;;;17.66;100.00
46127;BME280;31859;55.030;-1.550;2022-09-02T10:44:45;100748.56;;;18.50;100.00
46127;BME280;31859;55.030;-1.550;2022-09-02T10:47:20;100751.93;;;18.64;100.00
46127;BME280;31859;55.030;-1.550;2022-09-02T10:50:01;100755.31;;;19.58;100.00
46127;BME280;31859;55.030;-1.550;2022-09-02T10:52:48;100750.11;;;20.89;100.00
46127;BME280;31859;55.030;-1.550;2022-09-02T10:55:25;100750.63;;;20.09;100.00
46127;BME280;31859;55.030;-1.550;2022-09-02T10:57:59;100749.85;;;19.93;100.00
46127;BME280;31859;55.030;-1.550;2022-09-02T11:00:30;100744.74;;;19.99;100.00
46127;BME280;31859;55.030;-1.550;2022-09-02T11:03:06;100743.68;;;20.28;100.00
46127;BME280;31859;55.030;-1.550;2022-09-02T11:05:44;100742.36;;;21.11;100.00
46127;BME280;31859;55.030;-1.550;2022-09-02T11:08:19;100742.70;;;22.79;100.00
46127;BME280;31859;55.030;-1.550;2022-09-02T11:10:57;100734.09;;;22.15;100.00
46127;BME280;31859;55.030;-1.550;2022-09-02T11:13:37;100733.77;;;22.76;100.00
46127;BME280;31859;55.030;-1.550;2022-09-02T11:16:07;100731.17;;;23.11;100.00
46127;BME280;31859;55.030;-1.550;2022-09-02T11:18:43;100727.86;;;22.54;100.00
46127;BME280;31859;55.030;-1.550;2022-09-02T11:21:24;100729.25;;;21.46;100.00
46127;BME280;31859;55.030;-1.550;2022-09-02T11:23:58;100733.50;;;20.81;100.00
46127;BME280;31859;55.030;-1.550;2022-09-02T11:26:28;100724.52;;;20.79;100.00
46127;BME280;31859;55.030;-1.550;2022-09-02T11:29:04;100721.03;;;21.68;100.00
46127;BME280;31859;55.030;-1.550;2022-09-02T11:31:37;100716.51;;;22.20;100.00
46127;BME280;31859;55.030;-1.550;2022-09-02T11:34:16;100716.19;;;22.12;100.00
46127;BME280;31859;55.030;-1.550;2022-09-02T11:36:50;100719.93;;;20.30;100.00
46127;BME280;31859;55.030;-1.550;2022-09-02T11:39:30;100722.68;;;20.63;100.00
46127;BME280;31859;55.030;-1.550;2022-09-02T11:42:09;100725.42;;;20.05;100.00
46127;BME280;31859;55.030;-1.550;2022-09-02T11:44:56;100722.61;;;19.80;100.00
46127;BME280;31859;55.030;-1.550;2022-09-02T11:47:43;100716.26;;;18.96;100.00
46127;BME280;31859;55.030;-1.550;2022-09-02T11:50:30;100715.52;;;20.58;100.00
46127;BME280;31859;55.030;-1.550;2022-09-02T11:53:12;100718.29;;;20.44;100.00
46127;BME280;31859;55.030;-1.550;2022-09-02T11:55:48;100713.61;;;20.01;100.00
46127;BME280;31859;55.030;-1.550;2022-09-02T11:58:36;100710.81;;;20.55;100.00
46127;BME280;31859;55.030;-1.550;2022-09-02T12:01:20;100704.64;;;20.31;100.00
46127;BME280;31859;55.030;-1.550;2022-09-02T12:03:55;100701.13;;;20.73;100.00
46127;BME280;31859;55.030;-1.550;2022-09-02T12:06:24;100691.75;;;20.55;100.00
46127;BME280;31859;55.030;-1.550;2022-09-02T12:09:09;100687.60;;;19.85;100.00
46127;BME280;31859;55.030;-1.550;2022-09-02T12:11:42;100682.63;;;20.85;100.00
46127;BME280;31859;55.030;-1.550;2022-09-02T12:17:35;100671.06;;;21.80;100.00
46127;BME280;31859;55.030;-1.550;2022-09-02T12:20:04;100667.88;;;23.25;100.00
46127;BME280;31859;55.030;-1.550;2022-09-02T12:22:35;100673.27;;;22.43;100.00
46127;BME280;31859;55.030;-1.550;2022-09-02T12:25:05;100676.78;;;20.95;100.00
46127;BME280;31859;55.030;-1.550;2022-09-02T12:28:15;100675.07;;;21.02;100.00
46127;BME280;31859;55.030;-1.550;2022-09-02T12:31:35;100668.41;;;21.46;100.00
46127;BME280;31859;55.030;-1.550;2022-09-02T12:34:51;100662.01;;;21.46;100.00
46127;BME280;31859;55.030;-1.550;2022-09-02T12:38:30;100659.32;;;21.77;100.00
46127;BME280;31859;55.030;-1.550;2022-09-02T12:41:08;100663.97;;;21.08;100.00
46127;BME280;31859;55.030;-1.550;2022-09-02T12:43:46;100660.14;;;19.99;100.00
46127;BME280;31859;55.030;-1.550;2022-09-02T12:46:24;100658.10;;;20.08;100.00
46127;BME280;31859;55.030;-1.550;2022-09-02T12:49:00;100651.75;;;19.72;100.00
46127;BME280;31859;55.030;-1.550;2022-09-02T12:52:04;100649.81;;;21.02;100.00
46127;BME280;31859;55.030;-1.550;2022-09-02T12:54:40;100643.86;;;20.34;100.00